Crystal Springs, Nevada
Current Conditions -  °F | °C
As of 5:58 PM on Sunday 25 Jan 2015 (Local Time) from KINS Reporting Station
Clear Clear  
Wind Chill: 62°   Ceiling: Unl
Heat Index: 62°   Visibility: 10mi
Dew Point: 27°   Wind: 3mph
Humidity: 26%   Direction: 250°WSW
Pressure: 30.19"   Gusts: NA
Location:  37.7776°N, 115.121°W
Report Text: KINS 260158Z AUTO 25003KT 10SM CLR 17/M03 A3019 RMK AO2 SLP213 T01681027 $
Loading
Personal Weather Stations






























Interactive Weather Map New forecast layout! Learn more

10-Day Weather Forecast

Advertisements
Track Severe Weather on mobile